Time;durP1;ratioP1;P1;durP2;ratioP2;P2;SDS_P1;SDS_P2;PMS_P1;PMS_P2;Temp;Humidity;BMP_temperature;BMP_pressure;BME280_temperature;BME280_humidity;BME280_pressure;Samples;Min_cycle;Max_cycle;Signal;HPM_P1;HPM_P2
2021/05/27 00:00:50;;;;;;;0.60;0.60;;;;;;;-144.31;100.00;75242.06;5003505;28;20050;-74
2021/05/27 00:03:16;;;;;;;0.60;0.60;;;;;;;-144.31;100.00;75238.06;5002287;28;20065;-74
2021/05/27 00:05:41;;;;;;;0.60;0.60;;;;;;;-144.31;100.00;75228.09;5004274;28;20041;-74
2021/05/27 00:08:07;;;;;;;0.60;0.60;;;;;;;-144.31;100.00;75232.09;5001157;28;20514;-75
2021/05/27 00:10:33;;;;;;;0.50;0.50;;;;;;;-144.31;100.00;75226.09;5001792;28;20571;-74
2021/05/27 00:13:00;;;;;;;0.60;0.60;;;;;;;-144.31;100.00;75232.09;4987655;28;20050;-74
2021/05/27 00:15:28;;;;;;;0.60;0.60;;;;;;;-144.31;100.00;75238.06;4987120;28;20084;-74
2021/05/27 00:17:53;;;;;;;0.60;0.60;;;;;;;-144.31;100.00;75234.06;4987886;28;20042;-74
2021/05/27 00:20:20;;;;;;;0.60;0.60;;;;;;;-144.31;100.00;75218.09;5002988;28;20038;-74
2021/05/27 00:22:48;;;;;;;0.60;0.60;;;;;;;-144.31;100.00;75224.09;5004874;28;20108;-74
2021/05/27 00:25:14;;;;;;;0.60;0.60;;;;;;;-144.31;100.00;75228.09;5003962;28;20034;-74
2021/05/27 00:27:45;;;;;;;0.60;0.60;;;;;;;-144.31;100.00;75228.09;5002005;28;20060;-74
2021/05/27 00:30:11;;;;;;;0.60;0.60;;;;;;;-144.31;100.00;75216.09;5002235;28;20486;-74
2021/05/27 00:32:38;;;;;;;0.60;0.60;;;;;;;-144.31;100.00;75210.13;5005210;28;20053;-74
2021/05/27 00:35:05;;;;;;;0.60;0.60;;;;;;;-144.31;100.00;75214.09;5005296;28;20482;-74
2021/05/27 00:37:30;;;;;;;0.60;0.60;;;;;;;-144.31;100.00;75194.13;4987125;28;20054;-74
2021/05/27 00:39:56;;;;;;;0.60;0.60;;;;;;;-144.31;100.00;75202.13;5008425;28;20716;-74
2021/05/27 00:42:21;;;;;;;0.60;0.60;;;;;;;-144.31;100.00;75206.13;5008261;28;20038;-73
2021/05/27 00:44:58;;;;;;;0.50;0.50;;;;;;;-144.31;100.00;75212.09;5001110;28;20219;-73
2021/05/27 00:47:24;;;;;;;0.60;0.60;;;;;;;-144.31;100.00;75194.13;4991782;28;20041;-73
2021/05/27 00:49:50;;;;;;;0.60;0.60;;;;;;;-144.31;100.00;75190.13;5013412;28;20042;-73
2021/05/27 00:52:16;;;;;;;0.50;0.50;;;;;;;-144.31;100.00;75192.13;4990543;28;20311;-74
2021/05/27 00:54:41;;;;;;;0.55;0.55;;;;;;;-144.31;100.00;75206.13;5007791;28;20045;-74
2021/05/27 00:57:12;;;;;;;0.50;0.50;;;;;;;-144.31;100.00;75214.09;5007399;28;20401;-74
2021/05/27 00:59:39;;;;;;;0.52;0.52;;;;;;;-144.31;100.00;75204.13;5024763;28;20119;-73
2021/05/27 01:02:07;;;;;;;0.60;0.60;;;;;;;-144.31;100.00;75212.09;5006250;28;20042;-75
2021/05/27 01:04:35;;;;;;;0.50;0.50;;;;;;;-144.31;100.00;75212.09;4986814;28;20045;-73
2021/05/27 01:07:01;;;;;;;0.60;0.60;;;;;;;-144.31;100.00;75200.13;5007133;28;20060;-73
2021/05/27 01:09:38;;;;;;;0.60;0.60;;;;;;;-144.31;100.00;75202.13;5006028;28;20405;-74
2021/05/27 01:12:04;;;;;;;0.60;0.60;;;;;;;-144.31;100.00;75206.13;4991042;28;20104;-74
2021/05/27 01:17:16;;;;;;;0.57;0.57;;;;;;;-144.31;100.00;75174.16;5008046;28;20092;-74
2021/05/27 01:19:41;;;;;;;0.60;0.60;;;;;;;-144.31;100.00;75182.16;5023968;28;20456;-73
2021/05/27 01:22:07;;;;;;;0.50;0.50;;;;;;;-144.31;100.00;75198.13;5008152;28;20080;-74
2021/05/27 01:24:35;;;;;;;0.52;0.52;;;;;;;-144.31;100.00;75192.13;5004570;28;20411;-73
2021/05/27 01:27:01;;;;;;;0.50;0.50;;;;;;;-144.31;100.00;75186.16;5008198;28;20038;-73
2021/05/27 01:29:27;;;;;;;0.68;0.68;;;;;;;-144.31;100.00;75182.16;5005504;28;20065;-73
2021/05/27 01:31:52;;;;;;;0.60;0.60;;;;;;;-144.31;100.00;75180.16;4997684;28;20115;-73
2021/05/27 01:34:20;;;;;;;0.60;0.60;;;;;;;-144.31;100.00;75190.13;5006164;28;20042;-73
2021/05/27 01:36:46;;;;;;;0.55;0.55;;;;;;;-144.31;100.00;75178.16;5004601;28;20448;-73
2021/05/27 01:39:13;;;;;;;0.60;0.60;;;;;;;-144.31;100.00;75182.16;5004533;28;20450;-73
2021/05/27 01:41:39;;;;;;;0.60;0.60;;;;;;;-144.31;100.00;75160.19;5007620;28;20049;-73
2021/05/27 01:44:06;;;;;;;0.60;0.60;;;;;;;-144.31;100.00;75170.16;4989707;28;20042;-74
2021/05/27 01:46:31;;;;;;;0.60;0.60;;;;;;;-144.31;100.00;75160.19;5006828;28;20100;-73
2021/05/27 01:48:57;;;;;;;0.60;0.60;;;;;;;-144.31;100.00;75166.19;5005016;28;20037;-73
2021/05/27 01:51:22;;;;;;;0.60;0.60;;;;;;;-144.31;100.00;75182.16;5005394;28;20051;-73
2021/05/27 01:53:51;;;;;;;0.60;0.60;;;;;;;-144.31;100.00;75190.13;5005009;28;20033;-74
2021/05/27 01:56:16;;;;;;;0.60;0.60;;;;;;;-144.31;100.00;75198.13;4989389;28;20038;-73
2021/05/27 01:58:44;;;;;;;0.60;0.60;;;;;;;-144.31;100.00;75190.13;5021843;28;20050;-73
2021/05/27 02:01:10;;;;;;;0.60;0.60;;;;;;;-144.31;100.00;75204.13;4998427;28;20042;-73
2021/05/27 02:03:41;;;;;;;0.60;0.60;;;;;;;-144.31;100.00;75224.09;4984691;28;20483;-74
2021/05/27 02:06:11;;;;;;;0.60;0.60;;;;;;;-144.31;100.00;75230.09;4999060;28;20042;-73
2021/05/27 02:09:06;;;;;;;0.50;0.50;;;;;;;-144.31;100.00;75222.09;4987058;28;20046;-73
2021/05/27 02:11:27;;;;;;;0.50;0.50;;;;;;;-144.31;100.00;75230.09;4995033;28;20065;-73
2021/05/27 02:13:53;;;;;;;0.60;0.60;;;;;;;-144.31;100.00;75240.06;5003069;28;20110;-73
2021/05/27 02:16:19;;;;;;;0.50;0.50;;;;;;;-144.31;100.00;75246.06;4989627;28;20192;-73
2021/05/27 02:18:46;;;;;;;0.53;0.53;;;;;;;-144.31;100.00;75258.03;5006152;28;20125;-74
2021/05/27 02:21:11;;;;;;;0.60;0.60;;;;;;;-144.31;100.00;75240.06;5005340;28;20394;-74
2021/05/27 02:23:37;;;;;;;0.55;0.55;;;;;;;-144.31;100.00;75210.13;5004645;28;20046;-74
2021/05/27 02:26:07;;;;;;;0.60;0.60;;;;;;;-144.31;100.00;75244.06;5020371;28;20492;-75
2021/05/27 02:28:48;;;;;;;0.60;0.60;;;;;;;-144.31;100.00;75238.06;5008392;28;20119;-74
2021/05/27 02:31:15;;;;;;;0.70;0.70;;;;;;;-144.31;100.00;75230.09;5005278;28;20065;-74
2021/05/27 02:33:47;;;;;;;0.60;0.60;;;;;;;-144.31;100.00;75252.06;4990169;28;20046;-74
2021/05/27 02:36:23;;;;;;;0.60;0.60;;;;;;;-144.31;100.00;75258.03;4994832;28;20564;-74
2021/05/27 02:38:50;;;;;;;0.60;0.60;;;;;;;-144.31;100.00;75262.03;5011165;28;20496;-74
2021/05/27 02:41:18;;;;;;;0.60;0.60;;;;;;;-144.31;100.00;75272.03;5006338;28;20379;-74
2021/05/27 02:43:45;;;;;;;0.60;0.60;;;;;;;-144.31;100.00;75292.00;4999278;28;20038;-74
2021/05/27 02:46:13;;;;;;;0.60;0.60;;;;;;;-144.31;100.00;75301.97;5000242;28;20053;-74
2021/05/27 02:48:39;;;;;;;0.70;0.70;;;;;;;-144.31;100.00;75317.97;4989618;28;20495;-74
2021/05/27 02:51:05;;;;;;;0.60;0.60;;;;;;;-144.31;100.00;75323.94;5021769;28;20121;-75
2021/05/27 02:53:34;;;;;;;0.60;0.60;;;;;;;-144.31;100.00;75331.94;4988731;28;20049;-73
2021/05/27 02:56:02;;;;;;;0.60;0.60;;;;;;;-144.31;100.00;75355.91;5005936;28;20069;-74
2021/05/27 02:58:35;;;;;;;0.60;0.60;;;;;;;-144.31;100.00;75365.88;4986629;28;20041;-74
2021/05/27 03:01:03;;;;;;;0.60;0.60;;;;;;;-144.31;100.00;75383.88;5020416;28;20046;-73
2021/05/27 03:03:31;;;;;;;0.60;0.60;;;;;;;-144.31;100.00;75405.84;4987039;28;20571;-74
2021/05/27 03:06:00;;;;;;;0.60;0.60;;;;;;;-144.31;100.00;75427.81;5006402;28;20324;-74
2021/05/27 03:08:29;;;;;;;0.60;0.60;;;;;;;-144.31;100.00;75441.78;4975728;28;20136;-73
2021/05/27 03:10:55;;;;;;;0.60;0.60;;;;;;;-144.31;100.00;75445.78;5006994;28;20127;-73
2021/05/27 03:13:23;;;;;;;0.70;0.70;;;;;;;-144.31;100.00;75461.75;5006286;28;20037;-74
2021/05/27 03:15:51;;;;;;;0.60;0.60;;;;;;;-144.31;100.00;75461.75;5022353;28;20052;-73
2021/05/27 03:18:27;;;;;;;0.60;0.60;;;;;;;-144.31;100.00;75463.75;5019304;28;20084;-73
2021/05/27 03:20:55;;;;;;;0.60;0.60;;;;;;;-144.31;100.00;75457.75;5007331;28;20053;-74
2021/05/27 03:23:21;;;;;;;0.60;0.60;;;;;;;-144.31;100.00;75455.78;4988237;28;20092;-73
2021/05/27 03:25:52;;;;;;;0.60;0.60;;;;;;;-144.31;100.00;75447.78;5003244;28;20053;-73
2021/05/27 03:28:18;;;;;;;0.70;0.70;;;;;;;-144.31;100.00;75439.78;5002539;28;20519;-74
2021/05/27 03:30:44;;;;;;;0.60;0.60;;;;;;;-144.31;100.00;75425.81;5005858;28;20038;-73
2021/05/27 03:33:13;;;;;;;0.60;0.60;;;;;;;-144.31;100.00;75415.81;4999077;28;20073;-73
2021/05/27 03:35:40;;;;;;;0.68;0.68;;;;;;;-144.31;100.00;75397.84;5018371;28;20394;-74
2021/05/27 03:38:06;;;;;;;0.60;0.60;;;;;;;-144.31;100.00;75385.88;4988751;28;20448;-75
2021/05/27 03:40:32;;;;;;;0.60;0.60;;;;;;;-144.31;100.00;75379.88;5005110;28;20525;-74
2021/05/27 03:43:01;;;;;;;0.60;0.60;;;;;;;-144.31;100.00;75369.88;5004182;28;20053;-74
2021/05/27 03:45:33;;;;;;;0.60;0.60;;;;;;;-144.31;100.00;75361.91;4987504;28;20042;-74
2021/05/27 03:48:09;;;;;;;0.60;0.60;;;;;;;-144.31;100.00;75349.91;5012394;28;20454;-75
2021/05/27 03:50:36;;;;;;;0.60;0.60;;;;;;;-144.31;100.00;75343.91;4999535;28;20046;-74
2021/05/27 03:53:06;;;;;;;0.60;0.60;;;;;;;-144.31;100.00;75341.94;4994133;28;20177;-76
2021/05/27 03:55:34;;;;;;;0.60;0.60;;;;;;;-144.31;100.00;75339.94;5020700;28;20038;-74
2021/05/27 04:00:41;;;;;;;0.60;0.60;;;;;;;-144.31;100.00;75339.94;5003814;28;20128;-75
2021/05/27 04:00:52;;;;;;;0.60;0.60;;;;;;;-144.31;100.00;75349.91;5003399;28;20533;-75
2021/05/27 04:09:16;;;;;;;0.70;0.70;;;;;;;-144.31;100.00;75417.81;4995206;28;20077;-74
2021/05/27 04:11:42;;;;;;;0.60;0.60;;;;;;;-144.31;100.00;75439.78;4988733;28;20075;-74
2021/05/27 04:14:07;;;;;;;0.60;0.60;;;;;;;-144.31;100.00;75449.78;5003711;28;20525;-75
2021/05/27 04:16:37;;;;;;;0.60;0.60;;;;;;;-144.31;100.00;75451.78;5021588;28;20045;-74
2021/05/27 04:19:05;;;;;;;0.70;0.70;;;;;;;-144.31;100.00;75447.78;5004505;28;20053;-74
2021/05/27 04:21:33;;;;;;;0.70;0.70;;;;;;;-144.31;100.00;75437.78;5005407;28;20582;-74
2021/05/27 04:23:58;;;;;;;0.60;0.60;;;;;;;-144.31;100.00;75433.78;5001630;28;20155;-74
2021/05/27 04:26:24;;;;;;;0.60;0.60;;;;;;;-144.31;100.00;75441.78;5003716;28;21634;-74
2021/05/27 04:28:49;;;;;;;0.60;0.60;;;;;;;-144.31;100.00;75437.78;5020496;28;20554;-74
2021/05/27 04:31:18;;;;;;;0.70;0.70;;;;;;;-144.31;100.00;75439.78;5004499;28;20033;-75
2021/05/27 04:33:46;;;;;;;0.60;0.60;;;;;;;-144.31;100.00;75431.81;5006999;28;20034;-74
2021/05/27 04:36:14;;;;;;;0.70;0.70;;;;;;;-144.31;100.00;75417.81;5003663;28;20073;-75
2021/05/27 04:38:40;;;;;;;0.60;0.60;;;;;;;-144.31;100.00;75397.84;5020371;28;20041;-75
2021/05/27 04:41:06;;;;;;;0.70;0.70;;;;;;;-144.31;100.00;75383.88;5003491;28;20064;-75
2021/05/27 04:43:31;;;;;;;0.70;0.70;;;;;;;-144.31;100.00;75369.88;5020811;28;20045;-74
2021/05/27 04:45:57;;;;;;;0.60;0.60;;;;;;;-144.31;100.00;75357.91;5019648;28;20041;-74
2021/05/27 04:48:23;;;;;;;0.60;0.60;;;;;;;-144.31;100.00;75341.94;5001906;28;20046;-75
2021/05/27 04:50:50;;;;;;;0.60;0.60;;;;;;;-144.31;100.00;75325.94;5005669;28;20411;-75
2021/05/27 04:53:18;;;;;;;0.55;0.55;;;;;;;-144.31;100.00;75321.94;5004925;28;20423;-75
2021/05/27 04:55:44;;;;;;;0.60;0.60;;;;;;;-144.31;100.00;75309.97;5020204;28;20038;-75
2021/05/27 04:58:10;;;;;;;0.60;0.60;;;;;;;-144.31;100.00;75299.97;5009906;28;20058;-75
2021/05/27 05:00:36;;;;;;;0.60;0.60;;;;;;;-144.31;100.00;75294.00;5026286;28;20516;-75
2021/05/27 05:03:01;;;;;;;0.60;0.60;;;;;;;-144.31;100.00;75290.00;5003758;28;20049;-75
2021/05/27 05:05:31;;;;;;;0.60;0.60;;;;;;;-144.31;100.00;75292.00;4999405;28;20415;-74
2021/05/27 05:07:57;;;;;;;0.60;0.60;;;;;;;-144.31;100.00;75301.97;4999100;28;20038;-75
2021/05/27 05:10:24;;;;;;;0.60;0.60;;;;;;;-144.31;100.00;75298.00;4988456;28;20088;-75
2021/05/27 05:12:51;;;;;;;0.60;0.60;;;;;;;-144.31;100.00;75288.00;5003882;28;20045;-75
2021/05/27 05:15:21;;;;;;;0.60;0.60;;;;;;;-144.31;100.00;75282.00;5019598;28;20046;-75
2021/05/27 05:17:53;;;;;;;0.60;0.60;;;;;;;-144.31;100.00;75252.06;5002568;28;20515;-74
2021/05/27 05:20:21;;;;;;;0.55;0.55;;;;;;;-144.31;100.00;75250.06;4986372;28;20042;-75
2021/05/27 05:22:47;;;;;;;0.65;0.65;;;;;;;-144.31;100.00;75258.03;4985483;28;20051;-75
2021/05/27 05:25:16;;;;;;;0.50;0.50;;;;;;;-144.31;100.00;75258.03;4984409;28;20038;-75
2021/05/27 05:27:43;;;;;;;0.60;0.60;;;;;;;-144.31;100.00;75262.03;5008345;28;20103;-74
2021/05/27 05:30:10;;;;;;;0.60;0.60;;;;;;;-144.31;100.00;75236.06;4990892;28;20034;-75
2021/05/27 05:32:38;;;;;;;0.55;0.55;;;;;;;-144.31;100.00;75220.09;5009279;28;20162;-75
2021/05/27 05:35:06;;;;;;;0.60;0.60;;;;;;;-144.31;100.00;75214.09;5007060;28;20038;-75
2021/05/27 05:37:32;;;;;;;0.60;0.60;;;;;;;-144.31;100.00;75206.13;4992152;28;20527;-75
2021/05/27 05:39:57;;;;;;;0.60;0.60;;;;;;;-144.31;100.00;75196.13;4988395;28;20046;-75
2021/05/27 05:42:25;;;;;;;0.60;0.60;;;;;;;-144.31;100.00;75172.16;5001220;28;20454;-76
2021/05/27 05:44:51;;;;;;;0.50;0.50;;;;;;;-144.31;100.00;75166.19;5007972;28;20092;-75
2021/05/27 05:47:17;;;;;;;0.60;0.60;;;;;;;-144.31;100.00;75160.19;5004510;28;20136;-76
2021/05/27 05:49:43;;;;;;;0.60;0.60;;;;;;;-144.31;100.00;75144.22;5003741;28;20034;-75
2021/05/27 05:52:08;;;;;;;0.63;0.63;;;;;;;-144.31;100.00;75126.22;5001662;28;20037;-76
2021/05/27 05:54:36;;;;;;;0.55;0.55;;;;;;;-144.31;100.00;75136.22;5006526;28;20050;-76
2021/05/27 05:57:02;;;;;;;0.60;0.60;;;;;;;-144.31;100.00;75126.22;5008143;28;20077;-76
2021/05/27 05:59:27;;;;;;;0.50;0.50;;;;;;;-144.31;100.00;75118.25;5006581;28;20049;-76
2021/05/27 06:01:53;;;;;;;0.60;0.60;;;;;;;-144.31;100.00;75152.19;5004198;28;20042;-76
2021/05/27 06:04:20;;;;;;;0.70;0.70;;;;;;;-144.31;100.00;75164.19;5007140;28;20053;-77
2021/05/27 06:06:52;;;;;;;0.50;0.50;;;;;;;-144.31;100.00;75190.13;4992398;28;20046;-76
2021/05/27 06:09:20;;;;;;;0.60;0.60;;;;;;;-144.31;100.00;75114.25;5001298;28;20045;-76
2021/05/27 06:11:46;;;;;;;0.50;0.50;;;;;;;-144.31;100.00;75118.25;5007768;28;20045;-76
2021/05/27 06:14:13;;;;;;;0.50;0.50;;;;;;;-144.31;100.00;75070.31;4989722;28;20516;-76
2021/05/27 06:16:39;;;;;;;;;;;;;;;-144.31;100.00;75058.34;5016082;28;20163;-76
2021/05/27 06:19:06;;;;;;;0.50;0.50;;;;;;;-144.31;100.00;74978.44;5015500;28;19980;-78
2021/05/27 06:21:52;;;;;;;0.55;0.55;;;;;;;-144.31;100.00;74990.44;5020241;28;20052;-76
2021/05/27 06:24:28;;;;;;;0.52;0.52;;;;;;;-144.31;100.00;75026.38;5002631;28;20056;-76
2021/05/27 06:26:53;;;;;;;0.50;0.50;;;;;;;-144.31;100.00;75076.31;5021507;28;20065;-76
2021/05/27 06:29:21;;;;;;;0.50;0.50;;;;;;;-144.31;100.00;75070.31;5020484;28;20072;-76
2021/05/27 06:31:49;;;;;;;0.57;0.57;;;;;;;-144.31;100.00;74984.44;5038896;28;20091;-76
2021/05/27 06:34:14;;;;;;;0.60;0.60;;;;;;;-144.31;100.00;75064.31;5014344;28;20037;-75
2021/05/27 06:36:42;;;;;;;0.50;0.50;;;;;;;-144.31;100.00;74938.50;5007002;28;20193;-76
2021/05/27 06:39:10;;;;;;;0.50;0.50;;;;;;;-144.31;100.00;74898.56;5002343;28;20046;-76
2021/05/27 06:41:36;;;;;;;0.50;0.50;;;;;;;-144.31;100.00;74930.53;5027845;28;20077;-75
2021/05/27 06:44:01;;;;;;;0.57;0.57;;;;;;;-144.31;100.00;74956.47;5024562;28;20050;-74
2021/05/27 06:46:27;;;;;;;0.50;0.50;;;;;;;-144.31;100.00;74916.53;5007605;28;20050;-75
2021/05/27 06:48:54;;;;;;;0.50;0.50;;;;;;;-144.31;100.00;74942.50;5013260;28;20557;-77
2021/05/27 06:51:21;;;;;;;0.50;0.50;;;;;;;-144.31;100.00;74980.44;5010430;28;20069;-75
2021/05/27 06:53:47;;;;;;;0.40;0.40;;;;;;;-144.31;100.00;74932.53;5017975;28;20182;-74
2021/05/27 06:56:21;;;;;;;0.40;0.40;;;;;;;-144.31;100.00;74890.59;5013331;28;20704;-75
2021/05/27 06:58:49;;;;;;;0.50;0.50;;;;;;;-144.31;100.00;74946.50;5017602;28;20789;-75
2021/05/27 07:01:14;;;;;;;0.40;0.40;;;;;;;-144.31;100.00;74856.63;5019828;28;20109;-75
2021/05/27 07:03:40;;;;;;;0.50;0.50;;;;;;;-144.31;100.00;74768.78;5014013;28;20261;-74
2021/05/27 07:06:06;;;;;;;0.40;0.40;;;;;;;-144.31;100.00;74682.91;4991191;28;20049;-75
2021/05/27 07:08:33;;;;;;;0.40;0.40;;;;;;;-144.31;100.00;74692.88;5016381;28;20061;-75
2021/05/27 07:10:59;;;;;;;0.40;0.40;;;;;;;-144.31;100.00;74688.88;5004146;28;20038;-76
2021/05/27 07:13:25;;;;;;;0.40;0.40;;;;;;;-144.31;100.00;74826.69;5022864;28;20049;-75
2021/05/27 07:15:53;;;;;;;0.40;0.40;;;;;;;-144.31;100.00;74756.78;4992817;28;20575;-76
2021/05/27 07:18:19;;;;;;;0.40;0.40;;;;;;;-144.31;100.00;74738.81;5001997;28;20111;-76
2021/05/27 07:20:47;;;;;;;0.40;0.40;;;;;;;-144.31;100.00;74696.88;5005953;28;20042;-75
2021/05/27 07:23:12;;;;;;;0.40;0.40;;;;;;;-144.31;100.00;74607.03;5002349;28;20077;-75
2021/05/27 07:25:38;;;;;;;0.40;0.40;;;;;;;-144.31;100.00;74613.00;5000086;28;20152;-75
2021/05/27 07:28:04;;;;;;;0.30;0.30;;;;;;;-144.31;100.00;74678.91;4999842;28;20080;-75
2021/05/27 07:30:30;;;;;;;0.32;0.32;;;;;;;-144.31;100.00;74698.88;4998714;28;20436;-75
2021/05/27 07:32:56;;;;;;;0.40;0.40;;;;;;;-144.31;100.00;74686.91;4998228;28;20084;-76
2021/05/27 07:35:26;;;;;;;0.47;0.47;;;;;;;-144.31;100.00;74670.91;4998743;28;20072;-76
2021/05/27 07:37:53;;;;;;;0.50;0.50;;;;;;;-144.31;100.00;74628.97;4993066;28;20045;-76
2021/05/27 07:40:19;;;;;;;0.40;0.40;;;;;;;-144.31;100.00;74609.00;4991133;28;20045;-76
2021/05/27 07:42:45;;;;;;;0.45;0.45;;;;;;;-144.31;100.00;74674.91;4996511;28;20388;-76
2021/05/27 07:45:10;;;;;;;0.40;0.40;;;;;;;-144.31;100.00;74601.03;4995290;28;20041;-76
2021/05/27 07:47:36;;;;;;;0.40;0.40;;;;;;;-144.31;100.00;74642.97;4995104;28;20345;-76
2021/05/27 07:50:06;;;;;;;0.50;0.50;;;;;;;-144.31;100.00;74623.00;4994289;28;20046;-74
2021/05/27 07:52:37;;;;;;;0.40;0.40;;;;;;;-144.31;100.00;74607.03;4997406;28;20084;-74
2021/05/27 07:55:05;;;;;;;0.40;0.40;;;;;;;-144.31;100.00;74708.88;5000628;28;20544;-77
2021/05/27 07:57:30;;;;;;;0.40;0.40;;;;;;;-144.31;100.00;74824.69;4967835;28;20523;-76
2021/05/27 07:59:56;;;;;;;0.40;0.40;;;;;;;-144.31;100.00;74874.59;5000081;28;20053;-78
2021/05/27 08:02:22;;;;;;;0.60;0.60;;;;;;;-144.31;100.00;74794.72;4998662;28;20054;-77
2021/05/27 08:04:48;;;;;;;0.50;0.50;;;;;;;-144.31;100.00;74760.78;4980747;28;20062;-77
2021/05/27 08:07:14;;;;;;;0.57;0.57;;;;;;;-144.31;100.00;74690.88;4991462;28;20049;-77
2021/05/27 08:09:41;;;;;;;0.50;0.50;;;;;;;-144.31;100.00;74738.81;4998081;28;20049;-77
2021/05/27 08:12:09;;;;;;;0.52;0.52;;;;;;;-144.31;100.00;74575.06;4999926;28;20096;-76
2021/05/27 08:14:38;;;;;;;0.50;0.50;;;;;;;-144.31;100.00;74527.16;4967368;28;20054;-76
2021/05/27 08:17:03;;;;;;;0.50;0.50;;;;;;;-144.31;100.00;74537.13;4987802;28;20495;-77
2021/05/27 08:19:29;;;;;;;0.40;0.40;;;;;;;-144.31;100.00;74531.13;5003362;28;20046;-76
2021/05/27 08:21:57;;;;;;;0.40;0.40;;;;;;;-144.31;100.00;74511.19;4994539;28;20053;-76
2021/05/27 08:24:22;;;;;;;0.40;0.40;;;;;;;-144.31;100.00;74517.16;5005217;28;20041;-75
2021/05/27 08:26:48;;;;;;;0.40;0.40;;;;;;;-144.31;100.00;74499.19;4991091;28;20061;-74
2021/05/27 08:29:13;;;;;;;0.50;0.50;;;;;;;-144.31;100.00;74395.38;4991640;28;20456;-73
2021/05/27 08:31:41;;;;;;;0.40;0.40;;;;;;;-144.31;100.00;74417.31;4984190;28;20053;-74
2021/05/27 08:34:08;;;;;;;0.40;0.40;;;;;;;-144.31;100.00;74469.25;4992949;28;20427;-74
2021/05/27 08:36:34;;;;;;;0.30;0.30;;;;;;;-144.31;100.00;74595.03;5004570;28;20133;-74
2021/05/27 08:39:00;;;;;;;0.30;0.30;;;;;;;-144.31;100.00;74613.00;4997290;28;20125;-74
2021/05/27 08:41:25;;;;;;;0.40;0.40;;;;;;;-144.31;100.00;74505.19;4997409;28;20046;-75
2021/05/27 08:43:54;;;;;;;0.40;0.40;;;;;;;-144.31;100.00;74371.41;5009726;28;20104;-74
2021/05/27 08:46:23;;;;;;;0.40;0.40;;;;;;;-144.31;100.00;74375.41;4995174;28;20111;-74
2021/05/27 08:48:49;;;;;;;0.40;0.40;;;;;;;-144.31;100.00;74453.25;4996976;28;20046;-74
2021/05/27 08:51:15;;;;;;;0.40;0.40;;;;;;;-144.31;100.00;74423.31;5013657;28;20038;-74
2021/05/27 08:53:41;;;;;;;0.40;0.40;;;;;;;-144.31;100.00;74451.28;4995255;28;20052;-73
2021/05/27 08:56:07;;;;;;;0.40;0.40;;;;;;;-144.31;100.00;74461.25;4978951;28;20038;-74
2021/05/27 08:58:33;;;;;;;0.40;0.40;;;;;;;-144.31;100.00;74427.31;4995948;28;20049;-74
2021/05/27 09:01:01;;;;;;;0.40;0.40;;;;;;;-144.31;100.00;74445.28;4999694;28;20503;-75
2021/05/27 09:03:44;;;;;;;0.30;0.30;;;;;;;-144.31;100.00;74493.19;4995403;28;20124;-75
2021/05/27 09:06:14;;;;;;;0.30;0.30;;;;;;;-144.31;100.00;74551.09;5002414;28;20582;-75
2021/05/27 09:08:40;;;;;;;0.30;0.30;;;;;;;-144.31;100.00;74487.22;4998660;28;20049;-74
2021/05/27 09:11:14;;;;;;;0.40;0.40;;;;;;;-144.31;100.00;74371.41;4997035;28;20040;-75
2021/05/27 09:13:52;;;;;;;0.40;0.40;;;;;;;-144.31;100.00;74381.38;5001289;28;20053;-75
2021/05/27 09:16:18;;;;;;;0.40;0.40;;;;;;;-144.31;100.00;74381.38;5000738;28;20078;-74
2021/05/27 09:18:44;;;;;;;0.30;0.30;;;;;;;-144.31;100.00;74339.44;5003766;28;20076;-74
2021/05/27 09:21:12;;;;;;;0.30;0.30;;;;;;;-144.31;100.00;74377.38;4996203;28;20407;-75
2021/05/27 09:23:58;;;;;;;0.40;0.40;;;;;;;-144.31;100.00;74413.34;5002404;28;20050;-74
2021/05/27 09:26:23;;;;;;;0.40;0.40;;;;;;;-144.31;100.00;74405.34;4996937;28;20448;-73
2021/05/27 09:28:49;;;;;;;0.40;0.40;;;;;;;-144.31;100.00;74387.38;4998516;28;20520;-75
2021/05/27 09:31:22;;;;;;;0.30;0.30;;;;;;;-144.31;100.00;74383.38;5013118;28;20038;-70
2021/05/27 09:34:00;;;;;;;0.30;0.30;;;;;;;-144.31;100.00;74333.47;5012847;28;20043;-70
2021/05/27 09:36:26;;;;;;;0.40;0.40;;;;;;;-144.31;100.00;74335.47;4999285;28;20133;-74
2021/05/27 09:38:56;;;;;;;0.40;0.40;;;;;;;-144.31;100.00;74315.50;4995636;28;20125;-74
2021/05/27 09:41:29;;;;;;;0.30;0.30;;;;;;;-144.31;100.00;74301.50;4984685;28;20153;-74
2021/05/27 09:44:14;;;;;;;0.40;0.40;;;;;;;-144.31;100.00;74299.53;5000191;28;20078;-75
2021/05/27 09:46:53;;;;;;;0.30;0.30;;;;;;;-144.31;100.00;74271.56;5000127;28;20049;-74
2021/05/27 09:49:23;;;;;;;0.30;0.30;;;;;;;-144.31;100.00;74283.53;4995510;28;20077;-74
2021/05/27 09:51:57;;;;;;;0.30;0.30;;;;;;;-144.31;100.00;74363.41;4997691;28;20041;-74
2021/05/27 09:54:25;;;;;;;0.40;0.40;;;;;;;-144.31;100.00;74355.44;5013925;28;20134;-74
2021/05/27 09:56:50;;;;;;;0.30;0.30;;;;;;;-144.31;100.00;74393.38;5001658;28;20148;-75
2021/05/27 09:59:19;;;;;;;0.32;0.32;;;;;;;-144.31;100.00;74353.44;5008991;28;20458;-75
2021/05/27 10:02:14;;;;;;;0.30;0.30;;;;;;;-144.31;100.00;74371.41;5005309;28;20094;-74
2021/05/27 10:04:57;;;;;;;0.30;0.30;;;;;;;-144.31;100.00;74433.31;5004869;28;20073;-75
2021/05/27 10:07:46;;;;;;;0.30;0.30;;;;;;;-144.31;100.00;74433.31;4996760;28;20046;-75
2021/05/27 10:10:20;;;;;;;0.30;0.30;;;;;;;-144.31;100.00;74505.19;4994939;28;20041;-75
2021/05/27 10:12:48;;;;;;;0.30;0.30;;;;;;;-144.31;100.00;74485.22;4999878;28;20038;-75
2021/05/27 10:15:16;;;;;;;0.38;0.38;;;;;;;-144.31;100.00;74463.25;4998937;28;20553;-75
2021/05/27 10:17:44;;;;;;;0.30;0.30;;;;;;;-144.31;100.00;74455.25;4996749;28;20123;-75
2021/05/27 10:20:12;;;;;;;0.40;0.40;;;;;;;-144.31;100.00;74483.22;4978480;28;20046;-75
2021/05/27 10:22:38;;;;;;;0.30;0.30;;;;;;;-144.31;100.00;74565.09;4998846;28;20080;-75
2021/05/27 10:25:09;;;;;;;0.30;0.30;;;;;;;-144.31;100.00;74599.03;4998956;28;20053;-74
2021/05/27 10:27:36;;;;;;;0.30;0.30;;;;;;;-144.31;100.00;74630.97;4998700;28;20104;-74
2021/05/27 10:30:05;;;;;;;0.30;0.30;;;;;;;-144.31;100.00;74627.00;4988016;28;20129;-74
2021/05/27 10:32:33;;;;;;;0.30;0.30;;;;;;;-144.31;100.00;74648.94;4998353;28;20053;-74
2021/05/27 10:35:01;;;;;;;0.35;0.35;;;;;;;-144.31;100.00;74627.00;4999075;28;20042;-74
2021/05/27 10:37:33;;;;;;;0.40;0.40;;;;;;;-144.31;100.00;74599.03;4996818;28;20037;-74
2021/05/27 10:39:58;;;;;;;0.40;0.40;;;;;;;-144.31;100.00;74557.09;4998169;28;20042;-74
2021/05/27 10:42:44;;;;;;;0.40;0.40;;;;;;;-144.31;100.00;74531.13;5003804;28;20099;-74
2021/05/27 10:45:13;;;;;;;0.40;0.40;;;;;;;-144.31;100.00;74431.31;4997410;28;20038;-74
2021/05/27 10:47:58;;;;;;;0.40;0.40;;;;;;;-144.31;100.00;74323.47;5001989;28;20046;-74
2021/05/27 10:51:11;;;;;;;0.30;0.30;;;;;;;-144.31;100.00;74283.53;4998244;28;20061;-74
2021/05/27 10:53:40;;;;;;;0.30;0.30;;;;;;;-144.31;100.00;74287.53;4996761;28;20344;-74
2021/05/27 10:56:43;;;;;;;0.30;0.30;;;;;;;-144.31;100.00;74235.63;4992902;28;20695;-69
2021/05/27 10:59:16;;;;;;;0.30;0.30;;;;;;;-144.31;100.00;74221.66;4995055;28;20049;-69
2021/05/27 11:01:42;;;;;;;0.30;0.30;;;;;;;-144.31;100.00;74187.72;4998459;28;21384;-75
2021/05/27 11:04:08;;;;;;;0.30;0.30;;;;;;;-144.31;100.00;74227.63;4978077;28;20050;-77
2021/05/27 11:06:34;;;;;;;0.30;0.30;;;;;;;-144.31;100.00;74195.69;4999958;28;20132;-76
2021/05/27 11:11:45;;;;;;;0.30;0.30;;;;;;;-144.31;100.00;74153.75;4990660;28;20341;-76
2021/05/27 11:14:34;;;;;;;0.30;0.30;;;;;;;-144.31;100.00;74033.97;5009805;28;20039;-76
2021/05/27 11:17:03;;;;;;;0.30;0.30;;;;;;;-144.31;100.00;73956.09;4995141;28;20042;-75
2021/05/27 11:25:15;;;;;;;0.30;0.30;;;;;;;-144.31;100.00;74273.56;4996705;28;20045;-74
2021/05/27 11:27:44;;;;;;;0.30;0.30;;;;;;;-144.31;100.00;74307.50;4994966;28;20670;-75
2021/05/27 11:30:30;;;;;;;0.30;0.30;;;;;;;-144.31;100.00;74353.44;4997968;28;20038;-75
2021/05/27 11:33:03;;;;;;;0.30;0.30;;;;;;;-144.31;100.00;74311.50;4979444;28;20046;-74